createdAt,value
2019-03-05T00:01:18.999Z,98021.47
2019-03-05T00:03:45.724Z,98021.47
2019-03-05T00:06:12.440Z,98032.75
2019-03-05T00:08:39.151Z,98031.15
2019-03-05T00:11:05.901Z,98016.73
2019-03-05T00:13:38.120Z,98024.63
2019-03-05T00:16:06.827Z,98024.63
2019-03-05T00:18:33.543Z,98027.25
2019-03-05T00:21:00.264Z,98028.86
2019-03-05T00:23:57.252Z,98037.23
2019-03-05T00:26:27.896Z,98022.81
2019-03-05T00:29:06.319Z,98029.87
2019-03-05T00:31:35.392Z,98026.63
2019-03-05T00:34:17.600Z,98046.34
2019-03-05T00:36:57.665Z,98047.16
2019-03-05T00:39:57.561Z,98047.16
2019-03-05T00:42:57.079Z,98042.42
2019-03-05T00:45:44.041Z,98054.19
2019-03-05T00:48:51.869Z,98056.83
2019-03-05T00:52:02.708Z,98059.45
2019-03-05T00:54:53.055Z,98062.36
2019-03-05T00:57:47.556Z,98061.56
2019-03-05T01:00:51.485Z,98061.56
2019-03-05T01:03:50.976Z,98069.13
2019-03-05T01:06:20.359Z,98069.13
2019-03-05T01:08:47.102Z,98067.02
2019-03-05T01:11:20.062Z,98068.05
2019-03-05T01:13:51.895Z,98077.52
2019-03-05T01:16:21.857Z,98077.52
2019-03-05T01:18:48.556Z,98079.36
2019-03-05T01:21:18.217Z,98071.98
2019-03-05T01:23:44.860Z,98076.48
2019-03-05T01:26:11.644Z,98076.48
2019-03-05T01:28:38.385Z,98073.88
2019-03-05T01:31:25.851Z,98072.83
2019-03-05T01:34:06.116Z,98072.83
2019-03-05T01:36:44.044Z,98073.14
2019-03-05T01:39:45.442Z,98072.08
2019-03-05T01:42:12.402Z,98072.08
2019-03-05T01:44:39.132Z,98091.75
2019-03-05T01:47:05.840Z,98091.75
2019-03-05T01:49:32.678Z,98082.08
2019-03-05T01:51:59.436Z,98075.01
2019-03-05T01:54:26.158Z,98075.01
2019-03-05T01:56:52.880Z,98091.72
2019-03-05T01:59:20.104Z,98093.81
2019-03-05T02:01:46.842Z,98093.81
2019-03-05T02:04:13.837Z,98083.35
2019-03-05T02:06:40.590Z,98095.39
2019-03-05T02:09:07.712Z,98095.39
2019-03-05T02:11:34.466Z,98078.87
2019-03-05T02:14:01.534Z,98078.87
2019-03-05T02:16:28.279Z,98085.25
2019-03-05T02:19:33.671Z,98079.70
2019-03-05T02:22:00.420Z,98080.20
2019-03-05T02:25:18.206Z,98084.14
2019-03-05T02:28:14.188Z,98079.38
2019-03-05T02:31:03.599Z,98068.40
2019-03-05T02:34:02.844Z,98076.78
2019-03-05T02:36:54.519Z,98065.78
2019-03-05T02:39:42.220Z,98063.40
2019-03-05T02:42:42.513Z,98063.40
2019-03-05T02:45:31.894Z,98063.88
2019-03-05T02:48:52.605Z,98063.88
2019-03-05T02:52:07.636Z,98071.25
2019-03-05T02:55:00.629Z,98071.25
2019-03-05T02:57:26.610Z,98070.20
2019-03-05T02:59:53.336Z,98061.58
2019-03-05T03:02:39.710Z,98073.63
2019-03-05T03:05:36.151Z,98052.16
2019-03-05T03:08:03.008Z,98065.55
2019-03-05T03:10:29.813Z,98065.55
2019-03-05T03:12:56.559Z,98060.02
2019-03-05T03:15:23.287Z,98060.02
2019-03-05T03:17:50.026Z,98064.22
2019-03-05T03:20:17.727Z,98064.22
2019-03-05T03:22:44.850Z,98070.76
2019-03-05T03:25:13.970Z,98059.52
2019-03-05T03:27:40.678Z,98061.17
2019-03-05T03:30:10.001Z,98061.17
2019-03-05T03:32:36.725Z,98073.02
2019-03-05T03:35:04.616Z,98073.02
2019-03-05T03:37:31.642Z,98074.35
2019-03-05T03:39:58.400Z,98070.92
2019-03-05T03:42:25.128Z,98065.95
2019-03-05T03:44:52.213Z,98061.46
2019-03-05T03:47:18.947Z,98072.25
2019-03-05T03:49:45.650Z,98064.64
2019-03-05T03:52:12.353Z,98065.69
2019-03-05T03:54:39.051Z,98065.69
2019-03-05T03:57:05.763Z,98065.92
2019-03-05T03:59:32.459Z,98061.48
2019-03-05T04:02:02.995Z,98061.45
2019-03-05T04:04:29.712Z,98063.30
2019-03-05T04:06:57.384Z,98060.41
2019-03-05T04:09:24.110Z,98057.27
2019-03-05T04:11:50.851Z,98064.86
2019-03-05T04:14:17.530Z,98064.86
2019-03-05T04:16:44.308Z,98048.92
2019-03-05T04:19:13.710Z,98051.02
2019-03-05T04:21:40.441Z,98051.02
2019-03-05T04:24:07.181Z,98059.16
2019-03-05T04:26:33.916Z,98066.23
2019-03-05T04:29:00.656Z,98074.88
2019-03-05T04:31:27.395Z,98066.52
2019-03-05T04:33:54.228Z,98071.73
2019-03-05T04:36:20.949Z,98075.19
2019-03-05T04:38:47.663Z,98066.25
2019-03-05T04:41:16.993Z,98061.23
2019-03-05T04:43:46.835Z,98061.52
2019-03-05T04:46:48.008Z,98055.22
2019-03-05T04:49:37.379Z,98067.30
2019-03-05T04:52:15.620Z,98068.08
2019-03-05T04:54:42.378Z,98066.23
2019-03-05T04:57:09.087Z,98066.23
2019-03-05T04:59:35.828Z,98056.25
2019-03-05T05:02:02.653Z,98064.44
2019-03-05T05:04:29.365Z,98057.05
2019-03-05T05:06:56.084Z,98057.05
2019-03-05T05:09:22.800Z,98059.67
2019-03-05T05:11:49.569Z,98068.32
2019-03-05T05:14:16.312Z,98068.32
2019-03-05T05:16:43.013Z,98055.75
2019-03-05T05:19:09.784Z,98068.90
2019-03-05T05:21:36.517Z,98068.90
2019-03-05T05:24:03.259Z,98067.55
2019-03-05T05:26:29.971Z,98069.69
2019-03-05T05:28:56.716Z,98061.52
2019-03-05T05:31:23.458Z,98061.52
2019-03-05T05:33:50.300Z,98080.14
2019-03-05T05:36:17.051Z,98075.41
2019-03-05T05:38:43.790Z,98075.41
2019-03-05T05:41:10.545Z,98075.17
2019-03-05T05:43:37.286Z,98093.78
2019-03-05T05:46:08.261Z,98093.78
2019-03-05T05:48:34.981Z,98076.43
2019-03-05T05:51:02.037Z,98082.53
2019-03-05T05:53:28.846Z,98067.00
2019-03-05T05:55:55.544Z,98067.00
2019-03-05T05:58:22.260Z,98086.14
2019-03-05T06:00:51.167Z,98084.80
2019-03-05T06:03:18.215Z,98092.19
2019-03-05T06:05:47.324Z,98092.47
2019-03-05T06:08:14.038Z,98092.47
2019-03-05T06:10:40.873Z,98096.70
2019-03-05T06:13:07.572Z,98098.27
2019-03-05T06:15:34.332Z,98102.73
2019-03-05T06:18:01.037Z,98095.89
2019-03-05T06:20:27.811Z,98095.89
2019-03-05T06:22:54.519Z,98099.81
2019-03-05T06:25:21.263Z,98099.59
2019-03-05T06:27:48.126Z,98095.34
2019-03-05T06:30:14.864Z,98097.66
2019-03-05T06:32:41.601Z,98093.20
2019-03-05T06:35:08.320Z,98111.59
2019-03-05T06:37:36.975Z,98098.97
2019-03-05T06:40:05.077Z,98098.97
2019-03-05T06:42:32.202Z,98099.52
2019-03-05T06:44:58.890Z,98108.18
2019-03-05T06:47:25.603Z,98108.18
2019-03-05T06:49:52.339Z,98096.09
2019-03-05T06:52:19.083Z,98103.64
2019-03-05T06:54:45.811Z,98103.64
2019-03-05T06:57:12.541Z,98098.44
2019-03-05T06:59:39.399Z,98114.23
2019-03-05T07:02:06.112Z,98112.63
2019-03-05T07:04:32.833Z,98118.73
2019-03-05T07:07:00.971Z,98110.06
2019-03-05T07:10:00.965Z,98103.77
2019-03-05T07:12:53.031Z,98103.77
2019-03-05T07:15:54.249Z,98107.44
2019-03-05T07:18:24.871Z,98099.56
2019-03-05T07:21:22.116Z,98112.17
2019-03-05T07:24:37.468Z,98125.58
2019-03-05T07:27:04.211Z,98125.58
2019-03-05T07:29:30.964Z,98119.80
2019-03-05T07:31:57.699Z,98123.23
2019-03-05T07:34:27.675Z,98124.29
2019-03-05T07:36:54.573Z,98124.29
2019-03-05T07:39:22.071Z,98106.97
2019-03-05T07:41:49.093Z,98106.97
2019-03-05T07:44:15.823Z,98101.50
2019-03-05T07:46:47.886Z,98101.50
2019-03-05T07:49:14.626Z,98110.94
2019-03-05T07:51:41.367Z,98113.05
2019-03-05T07:54:10.193Z,98075.52
2019-03-05T07:56:37.301Z,98105.20
2019-03-05T07:59:04.025Z,98095.77
2019-03-05T08:01:30.789Z,98105.77
2019-03-05T08:03:57.935Z,98103.65
2019-03-05T08:06:27.659Z,98134.66
2019-03-05T08:09:31.482Z,98110.23
2019-03-05T08:12:35.971Z,98121.52
2019-03-05T08:15:22.615Z,98109.95
2019-03-05T08:17:49.557Z,98095.27
2019-03-05T08:20:16.726Z,98104.45
2019-03-05T08:22:43.843Z,98117.61
2019-03-05T08:25:10.707Z,98118.67
2019-03-05T08:27:41.708Z,98118.67
2019-03-05T08:30:14.455Z,98121.83
2019-03-05T08:32:39.649Z,98115.80
2019-03-05T08:35:07.591Z,98122.36
2019-03-05T08:37:34.327Z,98122.36
2019-03-05T08:40:01.060Z,98148.87
2019-03-05T08:42:27.802Z,98151.22
2019-03-05T08:44:54.740Z,98144.92
2019-03-05T08:47:21.516Z,98166.66
2019-03-05T08:49:48.271Z,98156.41
2019-03-05T08:52:15.011Z,98168.22
2019-03-05T08:54:41.750Z,98161.89
2019-03-05T08:57:08.471Z,98153.14
2019-03-05T08:59:35.201Z,98157.59
2019-03-05T09:02:01.956Z,98157.03
2019-03-05T09:04:28.708Z,98167.86
2019-03-05T09:06:56.015Z,98167.62
2019-03-05T09:09:22.773Z,98165.75
2019-03-05T09:11:51.230Z,98165.44
2019-03-05T09:14:18.410Z,98165.44
2019-03-05T09:16:45.173Z,98163.61
2019-03-05T09:19:12.312Z,98175.65
2019-03-05T09:21:39.068Z,98175.65
2019-03-05T09:24:07.048Z,98182.98
2019-03-05T09:26:33.910Z,98180.65
2019-03-05T09:29:01.009Z,98180.65
2019-03-05T09:31:27.748Z,98179.58
2019-03-05T09:33:54.496Z,98179.58
2019-03-05T09:36:21.257Z,98167.24
2019-03-05T09:38:47.986Z,98167.24
2019-03-05T09:41:14.727Z,98172.80
2019-03-05T09:43:42.326Z,98148.89
2019-03-05T09:46:09.057Z,98148.89
2019-03-05T09:48:36.230Z,98157.03
2019-03-05T09:51:03.676Z,98144.41
2019-03-05T09:53:30.420Z,98152.61
2019-03-05T09:55:57.143Z,98151.30
2019-03-05T09:58:23.965Z,98151.30
2019-03-05T10:00:50.696Z,98154.22
2019-03-05T10:03:18.447Z,98158.42
2019-03-05T10:05:45.795Z,98158.42
2019-03-05T10:08:12.536Z,98156.36
2019-03-05T10:10:39.400Z,98156.36
2019-03-05T10:13:06.785Z,98161.34
2019-03-05T10:15:33.526Z,98161.34
2019-03-05T10:18:11.855Z,98153.16
2019-03-05T10:20:28.880Z,98153.16
2019-03-05T10:22:58.192Z,98150.28
2019-03-05T10:25:25.530Z,98142.97
2019-03-05T10:27:52.392Z,98139.86
2019-03-05T10:30:24.863Z,98149.02
2019-03-05T10:32:55.513Z,98143.81
2019-03-05T10:35:24.090Z,98138.30
2019-03-05T10:37:51.844Z,98111.00
2019-03-05T10:40:19.214Z,98123.62
2019-03-05T10:42:46.321Z,98134.16
2019-03-05T10:45:14.549Z,98125.97
2019-03-05T10:47:41.314Z,98139.41
2019-03-05T10:50:15.338Z,98137.02
2019-03-05T10:52:39.638Z,98133.10
2019-03-05T10:55:07.016Z,98115.23
2019-03-05T10:57:33.738Z,98132.30
2019-03-05T11:00:00.504Z,98141.77
2019-03-05T11:02:29.150Z,98141.77
2019-03-05T11:04:55.915Z,98163.55
2019-03-05T11:07:24.052Z,98154.63
2019-03-05T11:09:51.444Z,98154.10
2019-03-05T11:12:18.230Z,98154.61
2019-03-05T11:14:45.168Z,98168.80
2019-03-05T11:17:12.576Z,98155.42
2019-03-05T11:19:39.302Z,98163.00
2019-03-05T11:22:06.070Z,98163.00
2019-03-05T11:24:32.844Z,98144.34
2019-03-05T11:27:00.055Z,98150.13
2019-03-05T11:29:26.912Z,98152.25
2019-03-05T11:31:53.618Z,98161.45
2019-03-05T11:34:23.510Z,98167.25
2019-03-05T11:36:50.362Z,98174.88
2019-03-05T11:39:17.122Z,98182.20
2019-03-05T11:41:43.838Z,98170.90
2019-03-05T11:44:10.616Z,98176.12
2019-03-05T11:46:37.474Z,98171.94
2019-03-05T11:49:05.646Z,98181.69
2019-03-05T11:51:34.996Z,98178.79
2019-03-05T11:54:01.752Z,98172.50
2019-03-05T11:56:28.880Z,98177.99
2019-03-05T11:58:55.661Z,98182.22
2019-03-05T12:01:26.849Z,98176.16
2019-03-05T12:03:53.608Z,98164.63
2019-03-05T12:06:21.006Z,98164.63
2019-03-05T12:08:47.949Z,98184.89
2019-03-05T12:11:16.136Z,98194.87
2019-03-05T12:13:42.862Z,98186.12
2019-03-05T12:16:11.491Z,98192.73
2019-03-05T12:18:38.246Z,98179.84
2019-03-05T12:21:05.023Z,98179.84
2019-03-05T12:23:31.773Z,98195.59
2019-03-05T12:25:58.789Z,98191.66
2019-03-05T12:28:25.558Z,98194.50
2019-03-05T12:30:52.304Z,98195.55
2019-03-05T12:33:19.142Z,98189.26
2019-03-05T12:35:46.648Z,98203.70
2019-03-05T12:38:13.746Z,98204.21
2019-03-05T12:40:40.892Z,98204.21
2019-03-05T12:43:07.848Z,98198.95
2019-03-05T12:45:34.606Z,98211.84
2019-03-05T12:48:01.370Z,98210.81
2019-03-05T12:50:28.230Z,98223.16
2019-03-05T12:52:54.981Z,98223.55
2019-03-05T12:55:21.844Z,98223.55
2019-03-05T12:57:48.628Z,98218.21
2019-03-05T13:00:19.440Z,98229.74
2019-03-05T13:02:46.177Z,98230.30
2019-03-05T13:05:14.363Z,98224.52
2019-03-05T13:07:43.691Z,98224.52
2019-03-05T13:10:12.467Z,98227.75
2019-03-05T13:12:40.175Z,98227.75
2019-03-05T13:15:09.033Z,98217.77
2019-03-05T13:17:35.866Z,98230.65
2019-03-05T13:20:03.015Z,98221.72
2019-03-05T13:22:31.670Z,98214.09
2019-03-05T13:24:59.164Z,98210.44
2019-03-05T13:27:28.039Z,98223.82
2019-03-05T13:29:54.911Z,98230.37
2019-03-05T13:32:21.858Z,98234.86
2019-03-05T13:34:48.650Z,98248.00
2019-03-05T13:37:15.383Z,98258.75
2019-03-05T13:39:42.273Z,98251.06
2019-03-05T13:42:09.050Z,98278.19
2019-03-05T13:44:35.892Z,98265.52
2019-03-05T13:47:05.756Z,98265.05
2019-03-05T13:50:42.340Z,98262.45
2019-03-05T13:54:01.040Z,98258.47
2019-03-05T13:56:37.792Z,98262.38
2019-03-05T13:59:45.989Z,98274.00
2019-03-05T14:02:16.113Z,98269.53
2019-03-05T14:05:30.988Z,98269.53
2019-03-05T14:08:35.592Z,98267.69
2019-03-05T14:11:02.544Z,98281.41
2019-03-05T14:13:29.823Z,98283.78
2019-03-05T14:15:57.714Z,98278.55
2019-03-05T14:18:24.597Z,98280.41
2019-03-05T14:20:54.390Z,98288.03
2019-03-05T14:23:21.141Z,98286.72
2019-03-05T14:25:47.884Z,98288.31
2019-03-05T14:28:15.029Z,98290.66
2019-03-05T14:30:42.118Z,98290.67
2019-03-05T14:33:08.896Z,98298.03
2019-03-05T14:35:39.107Z,98300.42
2019-03-05T14:38:06.187Z,98300.44
2019-03-05T14:40:38.162Z,98304.90
2019-03-05T14:43:07.921Z,98318.03
2019-03-05T14:45:36.025Z,98319.34
2019-03-05T14:48:07.767Z,98322.77
2019-03-05T14:50:35.527Z,98360.35
2019-03-05T14:53:05.023Z,98379.83
2019-03-05T14:55:31.881Z,98346.68
2019-03-05T14:57:59.164Z,98348.52
2019-03-05T15:00:29.320Z,98353.26
2019-03-05T15:02:58.840Z,98348.75
2019-03-05T15:05:26.013Z,98352.70
2019-03-05T15:07:52.785Z,98343.48
2019-03-05T15:10:22.772Z,98356.65
2019-03-05T15:12:49.554Z,98343.44
2019-03-05T15:15:21.882Z,98351.06
2019-03-05T15:17:49.253Z,98345.55
2019-03-05T15:20:16.141Z,98341.61
2019-03-05T15:22:42.961Z,98342.95
2019-03-05T15:25:12.598Z,98350.32
2019-03-05T15:27:42.109Z,98346.67
2019-03-05T15:30:11.721Z,98350.91
2019-03-05T15:32:41.558Z,98346.41
2019-03-05T15:35:08.415Z,98341.45
2019-03-05T15:37:35.135Z,98347.52
2019-03-05T15:40:01.880Z,98356.43
2019-03-05T15:42:28.892Z,98355.39
2019-03-05T15:44:55.886Z,98356.95
2019-03-05T15:47:22.636Z,98353.29
2019-03-05T15:49:49.375Z,98354.06
2019-03-05T15:52:16.092Z,98366.70
2019-03-05T15:54:42.752Z,98368.01
2019-03-05T15:57:10.032Z,98353.26
2019-03-05T15:59:37.207Z,98362.72
2019-03-05T16:02:03.992Z,98361.70
2019-03-05T16:04:31.109Z,98358.82
2019-03-05T16:06:57.844Z,98369.34
2019-03-05T16:09:24.639Z,98361.17
2019-03-05T16:11:53.390Z,98362.48
2019-03-05T16:14:20.073Z,98362.48
2019-03-05T16:16:51.635Z,98365.14
2019-03-05T16:19:16.509Z,98367.00
2019-03-05T16:21:44.657Z,98363.02
2019-03-05T16:24:11.739Z,98376.72
2019-03-05T16:26:38.851Z,98379.09
2019-03-05T16:29:06.488Z,98370.92
2019-03-05T16:32:07.985Z,98383.03
2019-03-05T16:35:09.752Z,98388.80
2019-03-05T16:37:47.590Z,98387.20
2019-03-05T16:40:34.281Z,98394.03
2019-03-05T16:43:11.351Z,98392.99
2019-03-05T16:45:53.979Z,98391.67
2019-03-05T16:48:40.486Z,98389.57
2019-03-05T16:51:15.606Z,98389.83
2019-03-05T16:54:16.817Z,98394.03
2019-03-05T16:57:09.621Z,98396.67
2019-03-05T16:59:54.931Z,98394.78
2019-03-05T17:02:31.276Z,98396.62
2019-03-05T17:05:29.691Z,98403.41
2019-03-05T17:08:05.315Z,98399.20
2019-03-05T17:10:46.693Z,98393.18
2019-03-05T17:13:13.439Z,98399.22
2019-03-05T17:15:40.191Z,98407.09
2019-03-05T17:18:07.216Z,98403.70
2019-03-05T17:20:36.387Z,98425.80
2019-03-05T17:23:04.115Z,98406.56
2019-03-05T17:25:30.907Z,98411.23
2019-03-05T17:27:57.666Z,98422.28
2019-03-05T17:30:24.376Z,98427.56
2019-03-05T17:32:51.150Z,98424.18
2019-03-05T17:35:17.951Z,98427.86
2019-03-05T17:37:44.883Z,98443.62
2019-03-05T17:40:11.829Z,98445.94
2019-03-05T17:42:38.568Z,98440.64
2019-03-05T17:45:09.798Z,98446.69
2019-03-05T17:47:36.504Z,98450.40
2019-03-05T17:50:03.344Z,98450.35
2019-03-05T17:52:30.338Z,98456.31
2019-03-05T17:54:57.084Z,98464.25
2019-03-05T17:57:23.929Z,98455.05
2019-03-05T17:59:50.815Z,98462.96
2019-03-05T18:02:17.677Z,98467.45
2019-03-05T18:04:44.720Z,98472.89
2019-03-05T18:07:11.435Z,98477.13
2019-03-05T18:09:38.187Z,98483.61
2019-03-05T18:12:04.915Z,98482.89
2019-03-05T18:14:32.096Z,98495.55
2019-03-05T18:16:58.811Z,98492.64
2019-03-05T18:19:25.614Z,98495.25
2019-03-05T18:21:52.420Z,98498.06
2019-03-05T18:24:19.255Z,98502.08
2019-03-05T18:26:45.969Z,98507.90
2019-03-05T18:29:12.820Z,98502.14
2019-03-05T18:31:39.618Z,98507.42
2019-03-05T18:34:06.650Z,98510.86
2019-03-05T18:36:33.553Z,98510.13
2019-03-05T18:39:00.498Z,98516.43
2019-03-05T18:41:29.868Z,98520.88
2019-03-05T18:43:56.588Z,98511.12
2019-03-05T18:46:23.315Z,98511.39
2019-03-05T18:48:50.570Z,98510.92
2019-03-05T18:51:17.299Z,98518.25
2019-03-05T18:53:44.018Z,98511.92
2019-03-05T18:56:10.740Z,98517.43
2019-03-05T18:58:37.462Z,98514.83
2019-03-05T19:01:04.920Z,98506.67
2019-03-05T19:03:33.602Z,98515.88
2019-03-05T19:06:00.343Z,98515.86
2019-03-05T19:08:27.182Z,98518.47
2019-03-05T19:10:54.009Z,98523.22
2019-03-05T19:13:20.760Z,98527.92
2019-03-05T19:15:47.605Z,98527.39
2019-03-05T19:18:14.368Z,98523.97
2019-03-05T19:20:41.402Z,98514.03
2019-03-05T19:23:08.132Z,98517.11
2019-03-05T19:25:34.998Z,98523.41
2019-03-05T19:28:01.739Z,98516.84
2019-03-05T19:30:30.538Z,98522.09
2019-03-05T19:32:57.258Z,98524.50
2019-03-05T19:35:23.997Z,98524.22
2019-03-05T19:37:51.038Z,98527.16
2019-03-05T19:40:23.339Z,98526.41
2019-03-05T19:42:50.546Z,98531.20
2019-03-05T19:45:17.302Z,98529.91
2019-03-05T19:47:44.023Z,98531.22
2019-03-05T19:50:12.654Z,98537.23
2019-03-05T19:52:39.385Z,98526.45
2019-03-05T19:55:07.554Z,98527.28
2019-03-05T19:57:34.285Z,98528.92
2019-03-05T20:00:01.067Z,98525.77
2019-03-05T20:02:27.895Z,98523.64
2019-03-05T20:04:57.083Z,98525.73
2019-03-05T20:07:23.806Z,98524.09
2019-03-05T20:09:50.853Z,98527.20
2019-03-05T20:12:17.870Z,98532.73
2019-03-05T20:14:44.682Z,98526.74
2019-03-05T20:17:11.958Z,98530.44
2019-03-05T20:19:38.872Z,98528.56
2019-03-05T20:22:05.833Z,98531.45
2019-03-05T20:24:32.553Z,98530.68
2019-03-05T20:26:59.688Z,98540.95
2019-03-05T20:29:26.426Z,98538.08
2019-03-05T20:31:53.218Z,98545.77
2019-03-05T20:34:20.005Z,98541.59
2019-03-05T20:36:47.467Z,98535.33
2019-03-05T20:39:14.335Z,98534.02
2019-03-05T20:41:41.494Z,98529.52
2019-03-05T20:44:08.197Z,98525.82
2019-03-05T20:46:36.830Z,98533.23
2019-03-05T20:49:04.177Z,98529.03
2019-03-05T20:51:31.928Z,98533.21
2019-03-05T20:56:51.995Z,98526.88
2019-03-05T20:59:18.729Z,98531.84
2019-03-05T21:01:46.578Z,98529.21
2019-03-05T21:04:13.323Z,98525.55
2019-03-05T21:06:42.857Z,98521.09
2019-03-05T21:09:26.082Z,98522.64
2019-03-05T21:11:57.495Z,98527.91
2019-03-05T21:14:25.562Z,98535.02
2019-03-05T21:16:52.394Z,98546.34
2019-03-05T21:19:19.208Z,98541.12
2019-03-05T21:21:46.291Z,98537.71
2019-03-05T21:24:16.038Z,98540.55
2019-03-05T21:26:43.938Z,98532.38
2019-03-05T21:29:12.994Z,98534.26
2019-03-05T21:31:42.940Z,98535.56
2019-03-05T21:34:09.766Z,98529.02
2019-03-05T21:36:37.604Z,98530.06
2019-03-05T21:39:12.157Z,98534.53
2019-03-05T21:41:38.886Z,98534.26
2019-03-05T21:44:05.922Z,98527.91
2019-03-05T21:46:32.736Z,98525.00
2019-03-05T21:48:59.486Z,98518.73
2019-03-05T21:51:26.558Z,98520.33
2019-03-05T21:53:53.714Z,98520.09
2019-03-05T21:56:20.590Z,98512.73
2019-03-05T21:58:47.320Z,98516.73
2019-03-05T22:01:14.084Z,98520.98
2019-03-05T22:03:40.910Z,98526.52
2019-03-05T22:06:07.655Z,98522.83
2019-03-05T22:08:34.512Z,98523.59
2019-03-05T22:11:01.312Z,98528.31
2019-03-05T22:13:28.370Z,98535.96
2019-03-05T22:15:55.516Z,98524.38
2019-03-05T22:18:22.244Z,98525.16
2019-03-05T22:20:51.500Z,98525.69
2019-03-05T22:23:18.230Z,98545.97
2019-03-05T22:25:47.713Z,98522.81
2019-03-05T22:28:14.470Z,98520.20
2019-03-05T22:30:41.149Z,98535.72
2019-03-05T22:33:08.620Z,98508.61
2019-03-05T22:35:35.442Z,98508.30
2019-03-05T22:38:02.172Z,98511.16
2019-03-05T22:40:28.881Z,98511.97
2019-03-05T22:42:56.033Z,98514.11
2019-03-05T22:45:25.415Z,98511.72
2019-03-05T22:47:52.220Z,98508.05
2019-03-05T22:50:18.939Z,98510.09
2019-03-05T22:52:45.688Z,98510.59
2019-03-05T22:55:12.508Z,98511.88
2019-03-05T22:57:39.334Z,98503.67
2019-03-05T23:00:12.008Z,98508.44
2019-03-05T23:02:38.790Z,98494.55
2019-03-05T23:05:07.198Z,98504.31
2019-03-05T23:07:33.918Z,98496.41
2019-03-05T23:10:00.648Z,98494.30
2019-03-05T23:12:27.362Z,98491.69
2019-03-05T23:14:55.915Z,98491.17
2019-03-05T23:17:22.854Z,98481.70
2019-03-05T23:19:49.602Z,98486.97
2019-03-05T23:22:16.373Z,98480.11
2019-03-05T23:24:43.195Z,98506.95
2019-03-05T23:27:09.963Z,98484.87
2019-03-05T23:29:46.508Z,98490.91
2019-03-05T23:32:14.289Z,98480.11
2019-03-05T23:34:42.537Z,98483.00
2019-03-05T23:37:09.453Z,98478.27
2019-03-05T23:39:36.189Z,98477.20
2019-03-05T23:42:03.010Z,98477.98
2019-03-05T23:44:29.765Z,98483.77
2019-03-05T23:46:56.547Z,98477.17
2019-03-05T23:49:23.667Z,98476.91
2019-03-05T23:51:50.408Z,98480.61
2019-03-05T23:54:17.464Z,98488.46
2019-03-05T23:56:44.232Z,98475.83
2019-03-05T23:59:10.977Z,98477.69
